Emerson, Iowa
Current Conditions -  °F | °C
As of 8:35 PM on Tuesday 25 Nov 2014 (Local Time) from KRDK Reporting Station
Overcast Overcast  
Wind Chill: 28°   Ceiling: 9500
Heat Index: 36°   Visibility: 10mi
Dew Point: 21°   Wind: 10mph
Humidity: 56%   Direction: 160°SSE
Pressure: 29.96"   Gusts: NA
Location:  41.02°N, 95.4°W
Report Text: KRDK 260235Z AUTO 16009KT 10SM FEW065 FEW075 OVC095 02/M06 A2996 RMK AO2
Loading
Personal Weather Stations






























Interactive Weather Map New forecast layout! Learn more

10-Day Weather Forecast

Advertisements
Track Severe Weather on mobile